Anderson Acres, Nevada
Current Conditions -  °F | °C
As of 3:15 AM on Sunday 23 Nov 2014 (Local Time) from KRTS Reporting Station
Clear Clear  
Wind Chill: -2°   Ceiling: Unl
Heat Index: -2°   Visibility: 10mi
Dew Point: -5°   Wind: 3mph
Humidity: 80%   Direction: 320°NW
Pressure: 30.32"   Gusts: NA
Location:  39.7378°N, 119.889°W
Report Text: KRTS 231115Z AUTO 32003KT 10SM CLR M02/M05 A3032 RMK AO2
Loading
Personal Weather Stations






























Interactive Weather Map New forecast layout! Learn more

10-Day Weather Forecast

Advertisements
Track Severe Weather on mobile